sensor_id;sensor_type;location;lat;lon;timestamp;pressure;altitude;pressure_sealevel;temperature;humidity
61292;BME280;47165;42.664;23.368;2022-10-31T00:01:31;95473.38;;;17.14;40.92
61292;BME280;47165;42.664;23.368;2022-10-31T00:03:57;95464.97;;;17.20;40.80
61292;BME280;47165;42.664;23.368;2022-10-31T00:06:23;95459.03;;;17.29;40.75
61292;BME280;47165;42.664;23.368;2022-10-31T00:08:54;95464.41;;;17.27;40.97
61292;BME280;47165;42.664;23.368;2022-10-31T00:11:19;95469.59;;;17.29;40.95
61292;BME280;47165;42.664;23.368;2022-10-31T00:13:45;95459.81;;;17.07;41.49
61292;BME280;47165;42.664;23.368;2022-10-31T00:16:21;95462.00;;;17.24;41.04
61292;BME280;47165;42.664;23.368;2022-10-31T00:18:51;95460.31;;;17.23;41.27
61292;BME280;47165;42.664;23.368;2022-10-31T00:21:17;95463.78;;;17.24;41.32
61292;BME280;47165;42.664;23.368;2022-10-31T00:23:42;95463.56;;;17.27;41.26
61292;BME280;47165;42.664;23.368;2022-10-31T00:26:08;95463.31;;;17.30;41.15
61292;BME280;47165;42.664;23.368;2022-10-31T00:28:33;95457.44;;;17.26;41.37
61292;BME280;47165;42.664;23.368;2022-10-31T00:31:04;95470.47;;;17.05;41.73
61292;BME280;47165;42.664;23.368;2022-10-31T00:33:29;95463.06;;;17.11;41.72
61292;BME280;47165;42.664;23.368;2022-10-31T00:35:55;95459.16;;;16.92;42.21
61292;BME280;47165;42.664;23.368;2022-10-31T00:38:21;95463.06;;;17.11;41.85
61292;BME280;47165;42.664;23.368;2022-10-31T00:40:46;95455.63;;;17.16;41.71
61292;BME280;47165;42.664;23.368;2022-10-31T00:43:12;95465.56;;;17.12;41.79
61292;BME280;47165;42.664;23.368;2022-10-31T00:45:37;95465.97;;;17.19;41.75
61292;BME280;47165;42.664;23.368;2022-10-31T00:48:03;95455.88;;;17.24;41.58
61292;BME280;47165;42.664;23.368;2022-10-31T00:50:28;95463.56;;;17.27;41.67
61292;BME280;47165;42.664;23.368;2022-10-31T00:52:54;95457.78;;;17.22;41.67
61292;BME280;47165;42.664;23.368;2022-10-31T00:55:19;95461.88;;;17.26;41.57
61292;BME280;47165;42.664;23.368;2022-10-31T00:57:47;95458.31;;;17.27;41.53
61292;BME280;47165;42.664;23.368;2022-10-31T01:00:13;95463.44;;;17.28;41.42
61292;BME280;47165;42.664;23.368;2022-10-31T01:02:39;95465.25;;;17.28;41.42
61292;BME280;47165;42.664;23.368;2022-10-31T01:05:05;95462.84;;;17.25;41.65
61292;BME280;47165;42.664;23.368;2022-10-31T01:07:30;95467.16;;;17.26;41.63
61292;BME280;47165;42.664;23.368;2022-10-31T01:09:56;95468.13;;;17.25;41.74
61292;BME280;47165;42.664;23.368;2022-10-31T01:12:21;95467.50;;;17.21;41.80
61292;BME280;47165;42.664;23.368;2022-10-31T01:14:46;95469.16;;;17.11;42.46
61292;BME280;47165;42.664;23.368;2022-10-31T01:17:13;95475.75;;;17.05;42.73
61292;BME280;47165;42.664;23.368;2022-10-31T01:19:38;95467.34;;;17.00;42.71
61292;BME280;47165;42.664;23.368;2022-10-31T01:22:04;95471.03;;;16.98;42.91
61292;BME280;47165;42.664;23.368;2022-10-31T01:24:29;95481.56;;;16.86;43.08
61292;BME280;47165;42.664;23.368;2022-10-31T01:26:55;95477.06;;;16.76;43.22
61292;BME280;47165;42.664;23.368;2022-10-31T01:29:20;95480.16;;;16.69;43.53
61292;BME280;47165;42.664;23.368;2022-10-31T01:31:46;95483.44;;;16.60;43.82
61292;BME280;47165;42.664;23.368;2022-10-31T01:34:16;95483.69;;;16.57;43.82
61292;BME280;47165;42.664;23.368;2022-10-31T01:36:43;95488.88;;;16.46;44.42
61292;BME280;47165;42.664;23.368;2022-10-31T01:39:12;95480.47;;;16.41;44.41
61292;BME280;47165;42.664;23.368;2022-10-31T01:41:44;95485.22;;;16.36;44.51
61292;BME280;47165;42.664;23.368;2022-10-31T01:47:21;95487.66;;;16.26;44.66
61292;BME280;47165;42.664;23.368;2022-10-31T01:49:46;95496.00;;;16.20;44.75
61292;BME280;47165;42.664;23.368;2022-10-31T01:54:59;95493.94;;;16.12;45.11
61292;BME280;47165;42.664;23.368;2022-10-31T01:57:27;95482.88;;;16.07;45.15
61292;BME280;47165;42.664;23.368;2022-10-31T01:59:58;95490.28;;;16.02;45.05
61292;BME280;47165;42.664;23.368;2022-10-31T02:02:25;95487.84;;;15.99;45.16
61292;BME280;47165;42.664;23.368;2022-10-31T02:04:53;95481.13;;;15.95;45.54
61292;BME280;47165;42.664;23.368;2022-10-31T02:08:02;95489.03;;;15.95;45.67
61292;BME280;47165;42.664;23.368;2022-10-31T02:10:30;95478.91;;;15.88;46.07
61292;BME280;47165;42.664;23.368;2022-10-31T02:12:58;95482.50;;;15.87;45.92
61292;BME280;47165;42.664;23.368;2022-10-31T02:15:24;95471.44;;;15.82;46.30
61292;BME280;47165;42.664;23.368;2022-10-31T02:17:51;95487.47;;;15.79;46.40
61292;BME280;47165;42.664;23.368;2022-10-31T02:20:21;95485.88;;;15.77;46.66
61292;BME280;47165;42.664;23.368;2022-10-31T02:26:08;95486.75;;;15.77;46.70
61292;BME280;47165;42.664;23.368;2022-10-31T02:31:41;95493.91;;;15.75;46.94
61292;BME280;47165;42.664;23.368;2022-10-31T02:34:18;95504.63;;;15.72;46.70
61292;BME280;47165;42.664;23.368;2022-10-31T02:42:08;95504.38;;;15.62;47.27
61292;BME280;47165;42.664;23.368;2022-10-31T02:44:42;95506.41;;;15.59;47.31
61292;BME280;47165;42.664;23.368;2022-10-31T02:47:18;95508.41;;;15.55;47.57
61292;BME280;47165;42.664;23.368;2022-10-31T02:50:01;95520.09;;;15.38;48.00
61292;BME280;47165;42.664;23.368;2022-10-31T02:52:31;95513.13;;;15.37;48.10
61292;BME280;47165;42.664;23.368;2022-10-31T02:54:57;95511.44;;;15.36;47.96
61292;BME280;47165;42.664;23.368;2022-10-31T02:57:33;95515.56;;;15.40;47.86
61292;BME280;47165;42.664;23.368;2022-10-31T03:00:05;95513.97;;;15.38;48.15
61292;BME280;47165;42.664;23.368;2022-10-31T03:15:43;95521.13;;;15.36;48.72
61292;BME280;47165;42.664;23.368;2022-10-31T03:18:27;95514.28;;;15.33;48.88
61292;BME280;47165;42.664;23.368;2022-10-31T03:21:02;95518.59;;;15.34;49.27
61292;BME280;47165;42.664;23.368;2022-10-31T03:23:31;95513.44;;;15.33;48.89
61292;BME280;47165;42.664;23.368;2022-10-31T03:26:00;95517.88;;;15.32;48.85
61292;BME280;47165;42.664;23.368;2022-10-31T03:28:33;95517.00;;;15.32;48.63
61292;BME280;47165;42.664;23.368;2022-10-31T03:31:02;95519.03;;;15.28;48.93
61292;BME280;47165;42.664;23.368;2022-10-31T03:33:31;95521.00;;;15.12;49.30
61292;BME280;47165;42.664;23.368;2022-10-31T03:35:59;95536.13;;;15.08;49.59
61292;BME280;47165;42.664;23.368;2022-10-31T03:38:28;95533.81;;;15.03;49.21
61292;BME280;47165;42.664;23.368;2022-10-31T03:40:55;95537.78;;;14.96;49.97
61292;BME280;47165;42.664;23.368;2022-10-31T03:43:28;95539.56;;;14.96;50.09
61292;BME280;47165;42.664;23.368;2022-10-31T03:45:55;95535.38;;;14.93;50.27
61292;BME280;47165;42.664;23.368;2022-10-31T03:48:22;95543.03;;;14.96;49.95
61292;BME280;47165;42.664;23.368;2022-10-31T03:51:08;95545.75;;;14.95;49.68
61292;BME280;47165;42.664;23.368;2022-10-31T03:53:41;95544.91;;;14.94;49.66
61292;BME280;47165;42.664;23.368;2022-10-31T03:56:28;95539.34;;;14.99;49.66
61292;BME280;47165;42.664;23.368;2022-10-31T03:59:00;95551.66;;;14.98;49.42
61292;BME280;47165;42.664;23.368;2022-10-31T04:01:30;95562.41;;;14.95;49.32
61292;BME280;47165;42.664;23.368;2022-10-31T04:03:57;95560.69;;;14.94;49.29
61292;BME280;47165;42.664;23.368;2022-10-31T04:06:24;95554.59;;;14.94;49.30
61292;BME280;47165;42.664;23.368;2022-10-31T04:09:09;95556.69;;;14.88;49.39
61292;BME280;47165;42.664;23.368;2022-10-31T04:11:39;95552.47;;;14.86;49.54
61292;BME280;47165;42.664;23.368;2022-10-31T04:14:06;95567.59;;;14.82;49.74
61292;BME280;47165;42.664;23.368;2022-10-31T04:16:33;95564.13;;;14.82;49.67
61292;BME280;47165;42.664;23.368;2022-10-31T04:18:59;95567.06;;;14.77;49.92
61292;BME280;47165;42.664;23.368;2022-10-31T04:21:28;95569.78;;;14.76;50.31
61292;BME280;47165;42.664;23.368;2022-10-31T04:23:55;95562.28;;;14.69;50.47
61292;BME280;47165;42.664;23.368;2022-10-31T04:26:20;95555.53;;;14.65;50.83
61292;BME280;47165;42.664;23.368;2022-10-31T04:28:46;95559.97;;;14.65;50.79
61292;BME280;47165;42.664;23.368;2022-10-31T04:31:11;95564.16;;;14.67;50.57
61292;BME280;47165;42.664;23.368;2022-10-31T04:33:37;95568.69;;;14.65;50.98
61292;BME280;47165;42.664;23.368;2022-10-31T04:36:03;95565.13;;;14.66;50.66
61292;BME280;47165;42.664;23.368;2022-10-31T04:38:29;95569.53;;;14.52;51.39
61292;BME280;47165;42.664;23.368;2022-10-31T04:40:55;95570.19;;;14.55;51.24
61292;BME280;47165;42.664;23.368;2022-10-31T04:43:20;95570.78;;;14.60;51.16
61292;BME280;47165;42.664;23.368;2022-10-31T04:45:46;95575.91;;;14.62;51.10
61292;BME280;47165;42.664;23.368;2022-10-31T04:48:11;95574.91;;;14.64;51.35
61292;BME280;47165;42.664;23.368;2022-10-31T04:50:36;95583.63;;;14.65;51.50
61292;BME280;47165;42.664;23.368;2022-10-31T04:53:02;95578.34;;;14.65;51.30
61292;BME280;47165;42.664;23.368;2022-10-31T04:55:27;95586.16;;;14.66;51.43
61292;BME280;47165;42.664;23.368;2022-10-31T04:57:53;95587.81;;;14.67;51.33
61292;BME280;47165;42.664;23.368;2022-10-31T05:00:20;95579.94;;;14.67;51.33
61292;BME280;47165;42.664;23.368;2022-10-31T05:02:48;95581.63;;;14.68;51.20
61292;BME280;47165;42.664;23.368;2022-10-31T05:05:15;95586.69;;;14.72;51.38
61292;BME280;47165;42.664;23.368;2022-10-31T05:07:42;95581.00;;;14.65;51.59
61292;BME280;47165;42.664;23.368;2022-10-31T05:10:13;95588.78;;;14.66;51.56
61292;BME280;47165;42.664;23.368;2022-10-31T05:12:48;95590.53;;;14.66;51.59
61292;BME280;47165;42.664;23.368;2022-10-31T05:15:15;95595.72;;;14.67;51.62
61292;BME280;47165;42.664;23.368;2022-10-31T05:17:40;95593.75;;;14.71;51.46
61292;BME280;47165;42.664;23.368;2022-10-31T05:20:06;95607.72;;;14.72;52.09
61292;BME280;47165;42.664;23.368;2022-10-31T05:22:32;95605.69;;;14.62;52.26
61292;BME280;47165;42.664;23.368;2022-10-31T05:24:57;95609.91;;;14.65;52.41
61292;BME280;47165;42.664;23.368;2022-10-31T05:27:22;95614.09;;;14.67;52.38
61292;BME280;47165;42.664;23.368;2022-10-31T05:29:48;95614.94;;;14.68;52.50
61292;BME280;47165;42.664;23.368;2022-10-31T05:32:13;95611.31;;;14.71;52.73
61292;BME280;47165;42.664;23.368;2022-10-31T05:34:39;95614.69;;;14.73;52.74
61292;BME280;47165;42.664;23.368;2022-10-31T05:37:04;95615.50;;;14.73;52.64
61292;BME280;47165;42.664;23.368;2022-10-31T05:39:29;95615.50;;;14.73;52.92
61292;BME280;47165;42.664;23.368;2022-10-31T05:41:55;95626.03;;;14.73;52.72
61292;BME280;47165;42.664;23.368;2022-10-31T05:44:20;95618.13;;;14.73;52.24
61292;BME280;47165;42.664;23.368;2022-10-31T05:46:46;95621.50;;;14.75;52.24
61292;BME280;47165;42.664;23.368;2022-10-31T05:49:12;95624.16;;;14.75;52.65
61292;BME280;47165;42.664;23.368;2022-10-31T05:51:37;95628.56;;;14.75;52.40
61292;BME280;47165;42.664;23.368;2022-10-31T05:54:03;95623.41;;;14.73;52.67
61292;BME280;47165;42.664;23.368;2022-10-31T05:56:28;95630.31;;;14.74;52.55
61292;BME280;47165;42.664;23.368;2022-10-31T05:58:54;95623.31;;;14.75;52.49
61292;BME280;47165;42.664;23.368;2022-10-31T06:01:19;95630.53;;;14.71;52.71
61292;BME280;47165;42.664;23.368;2022-10-31T06:03:45;95637.38;;;14.74;52.71
61292;BME280;47165;42.664;23.368;2022-10-31T06:06:10;95642.84;;;14.71;52.82
61292;BME280;47165;42.664;23.368;2022-10-31T06:08:36;95641.88;;;14.72;52.65
61292;BME280;47165;42.664;23.368;2022-10-31T06:11:01;95646.22;;;14.73;52.68
61292;BME280;47165;42.664;23.368;2022-10-31T06:13:27;95647.34;;;14.68;52.86
61292;BME280;47165;42.664;23.368;2022-10-31T06:15:52;95650.72;;;14.71;53.06
61292;BME280;47165;42.664;23.368;2022-10-31T06:18:18;95656.75;;;14.73;53.02
61292;BME280;47165;42.664;23.368;2022-10-31T06:20:43;95654.84;;;14.75;52.78
61292;BME280;47165;42.664;23.368;2022-10-31T06:23:08;95658.13;;;14.78;52.78
61292;BME280;47165;42.664;23.368;2022-10-31T06:25:35;95665.16;;;14.78;53.19
61292;BME280;47165;42.664;23.368;2022-10-31T06:28:00;95669.50;;;14.79;53.04
61292;BME280;47165;42.664;23.368;2022-10-31T06:30:26;95673.78;;;14.80;53.31
61292;BME280;47165;42.664;23.368;2022-10-31T06:32:51;95668.94;;;14.74;53.43
61292;BME280;47165;42.664;23.368;2022-10-31T06:35:17;95672.50;;;14.73;53.33
61292;BME280;47165;42.664;23.368;2022-10-31T06:37:43;95677.47;;;14.77;53.06
61292;BME280;47165;42.664;23.368;2022-10-31T06:40:08;95677.25;;;14.80;53.19
61292;BME280;47165;42.664;23.368;2022-10-31T06:42:34;95680.53;;;14.84;53.13
61292;BME280;47165;42.664;23.368;2022-10-31T06:44:59;95679.63;;;14.85;52.71
61292;BME280;47165;42.664;23.368;2022-10-31T06:47:25;95673.22;;;14.89;52.79
61292;BME280;47165;42.664;23.368;2022-10-31T06:49:50;95676.59;;;14.91;52.90
61292;BME280;47165;42.664;23.368;2022-10-31T06:52:16;95677.34;;;14.93;52.98
61292;BME280;47165;42.664;23.368;2022-10-31T06:54:41;95683.38;;;14.95;53.01
61292;BME280;47165;42.664;23.368;2022-10-31T06:57:07;95675.47;;;14.95;52.88
61292;BME280;47165;42.664;23.368;2022-10-31T06:59:32;95679.38;;;15.02;53.12
61292;BME280;47165;42.664;23.368;2022-10-31T07:01:58;95683.72;;;15.03;53.19
61292;BME280;47165;42.664;23.368;2022-10-31T07:04:23;95680.22;;;15.03;53.25
61292;BME280;47165;42.664;23.368;2022-10-31T07:06:52;95676.44;;;15.07;53.04
61292;BME280;47165;42.664;23.368;2022-10-31T07:09:18;95678.91;;;15.10;53.00
61292;BME280;47165;42.664;23.368;2022-10-31T07:11:43;95684.81;;;15.14;53.09
61292;BME280;47165;42.664;23.368;2022-10-31T07:14:09;95674.84;;;15.19;52.93
61292;BME280;47165;42.664;23.368;2022-10-31T07:16:34;95670.13;;;15.24;52.77
61292;BME280;47165;42.664;23.368;2022-10-31T07:19:00;95678.47;;;15.31;52.68
61292;BME280;47165;42.664;23.368;2022-10-31T07:21:25;95670.25;;;15.35;52.75
61292;BME280;47165;42.664;23.368;2022-10-31T07:23:50;95668.19;;;15.40;52.67
61292;BME280;47165;42.664;23.368;2022-10-31T07:26:16;95655.44;;;15.34;52.45
61292;BME280;47165;42.664;23.368;2022-10-31T07:28:41;95661.78;;;15.44;52.37
61292;BME280;47165;42.664;23.368;2022-10-31T07:31:07;95656.22;;;15.49;52.25
61292;BME280;47165;42.664;23.368;2022-10-31T07:33:32;95656.00;;;15.52;52.15
61292;BME280;47165;42.664;23.368;2022-10-31T07:35:58;95657.69;;;15.53;52.37
61292;BME280;47165;42.664;23.368;2022-10-31T07:38:23;95664.34;;;15.59;52.22
61292;BME280;47165;42.664;23.368;2022-10-31T07:40:50;95666.44;;;15.66;52.14
61292;BME280;47165;42.664;23.368;2022-10-31T07:43:18;95660.91;;;15.71;52.03
61292;BME280;47165;42.664;23.368;2022-10-31T07:45:43;95655.25;;;15.77;51.99
61292;BME280;47165;42.664;23.368;2022-10-31T07:48:13;95653.88;;;15.84;51.83
61292;BME280;47165;42.664;23.368;2022-10-31T07:50:39;95655.03;;;15.93;51.76
61292;BME280;47165;42.664;23.368;2022-10-31T07:53:12;95657.16;;;16.01;51.60
61292;BME280;47165;42.664;23.368;2022-10-31T07:55:38;95656.97;;;16.04;51.52
61292;BME280;47165;42.664;23.368;2022-10-31T07:58:07;95651.28;;;16.10;51.23
61292;BME280;47165;42.664;23.368;2022-10-31T08:00:34;95662.44;;;16.14;51.33
61292;BME280;47165;42.664;23.368;2022-10-31T08:03:11;95655.91;;;16.19;51.29
61292;BME280;47165;42.664;23.368;2022-10-31T08:05:37;95659.81;;;16.26;51.13
61292;BME280;47165;42.664;23.368;2022-10-31T08:08:04;95664.97;;;16.28;50.99
61292;BME280;47165;42.664;23.368;2022-10-31T08:10:30;95662.03;;;16.33;50.94
61292;BME280;47165;42.664;23.368;2022-10-31T08:13:00;95656.09;;;16.42;50.64
61292;BME280;47165;42.664;23.368;2022-10-31T08:15:26;95649.66;;;16.46;50.78
61292;BME280;47165;42.664;23.368;2022-10-31T08:17:52;95651.97;;;16.50;50.65
61292;BME280;47165;42.664;23.368;2022-10-31T08:20:19;95658.63;;;16.56;50.66
61292;BME280;47165;42.664;23.368;2022-10-31T08:22:55;95658.72;;;16.67;50.32
61292;BME280;47165;42.664;23.368;2022-10-31T08:25:20;95665.16;;;16.63;50.24
61292;BME280;47165;42.664;23.368;2022-10-31T08:27:53;95655.66;;;16.74;50.20
61292;BME280;47165;42.664;23.368;2022-10-31T08:30:19;95658.91;;;16.64;50.36
61292;BME280;47165;42.664;23.368;2022-10-31T08:32:45;95662.59;;;16.75;50.04
61292;BME280;47165;42.664;23.368;2022-10-31T08:35:11;95659.94;;;16.87;50.00
61292;BME280;47165;42.664;23.368;2022-10-31T08:37:36;95657.50;;;16.97;49.43
61292;BME280;47165;42.664;23.368;2022-10-31T08:40:02;95646.13;;;16.97;49.44
61292;BME280;47165;42.664;23.368;2022-10-31T08:42:28;95650.59;;;17.07;49.13
61292;BME280;47165;42.664;23.368;2022-10-31T08:44:53;95647.13;;;17.07;49.11
61292;BME280;47165;42.664;23.368;2022-10-31T08:47:19;95639.06;;;17.21;48.79
61292;BME280;47165;42.664;23.368;2022-10-31T08:49:44;95642.34;;;17.36;48.50
61292;BME280;47165;42.664;23.368;2022-10-31T08:52:10;95644.38;;;17.57;48.36
61292;BME280;47165;42.664;23.368;2022-10-31T08:54:37;95643.56;;;17.67;48.02
61292;BME280;47165;42.664;23.368;2022-10-31T08:57:02;95645.81;;;17.85;47.82
61292;BME280;47165;42.664;23.368;2022-10-31T08:59:28;95648.97;;;18.01;47.74
61292;BME280;47165;42.664;23.368;2022-10-31T09:01:53;95638.31;;;18.14;47.15
61292;BME280;47165;42.664;23.368;2022-10-31T09:04:18;95644.19;;;18.29;46.94
61292;BME280;47165;42.664;23.368;2022-10-31T09:06:44;95644.94;;;18.42;46.75
61292;BME280;47165;42.664;23.368;2022-10-31T09:09:09;95638.81;;;18.53;45.82
61292;BME280;47165;42.664;23.368;2022-10-31T09:11:35;95640.38;;;18.67;45.66
61292;BME280;47165;42.664;23.368;2022-10-31T09:14:00;95636.03;;;18.77;45.59
61292;BME280;47165;42.664;23.368;2022-10-31T09:16:25;95634.25;;;18.89;45.33
61292;BME280;47165;42.664;23.368;2022-10-31T09:18:51;95638.31;;;19.04;45.06
61292;BME280;47165;42.664;23.368;2022-10-31T09:21:16;95638.53;;;19.13;44.65
61292;BME280;47165;42.664;23.368;2022-10-31T09:23:42;95636.59;;;19.26;44.78
61292;BME280;47165;42.664;23.368;2022-10-31T09:26:07;95632.78;;;19.40;44.64
61292;BME280;47165;42.664;23.368;2022-10-31T09:28:33;95629.13;;;19.52;43.96
61292;BME280;47165;42.664;23.368;2022-10-31T09:30:58;95625.47;;;19.64;43.74
61292;BME280;47165;42.664;23.368;2022-10-31T09:33:23;95631.53;;;19.55;43.14
61292;BME280;47165;42.664;23.368;2022-10-31T09:35:49;95628.81;;;19.78;43.24
61292;BME280;47165;42.664;23.368;2022-10-31T09:38:17;95631.59;;;19.97;42.69
61292;BME280;47165;42.664;23.368;2022-10-31T09:40:48;95625.25;;;20.09;43.12
61292;BME280;47165;42.664;23.368;2022-10-31T09:51:05;95623.63;;;20.70;41.13
61292;BME280;47165;42.664;23.368;2022-10-31T09:53:37;95615.53;;;20.81;40.74
61292;BME280;47165;42.664;23.368;2022-10-31T09:56:16;95617.84;;;21.05;40.67
61292;BME280;47165;42.664;23.368;2022-10-31T09:58:49;95618.72;;;21.25;39.94
61292;BME280;47165;42.664;23.368;2022-10-31T10:01:38;95612.75;;;20.83;39.83
61292;BME280;47165;42.664;23.368;2022-10-31T10:04:40;95610.97;;;21.43;39.71
61292;BME280;47165;42.664;23.368;2022-10-31T10:09:39;95600.69;;;21.97;38.09
61292;BME280;47165;42.664;23.368;2022-10-31T10:13:04;95595.63;;;22.23;38.22
61292;BME280;47165;42.664;23.368;2022-10-31T10:21:35;95588.97;;;22.47;36.00
61292;BME280;47165;42.664;23.368;2022-10-31T10:30:18;95578.75;;;23.43;34.77
61292;BME280;47165;42.664;23.368;2022-10-31T10:32:58;95563.28;;;23.65;33.91
61292;BME280;47165;42.664;23.368;2022-10-31T10:40:47;95551.19;;;25.67;31.42
61292;BME280;47165;42.664;23.368;2022-10-31T10:43:20;95553.19;;;25.98;30.02
61292;BME280;47165;42.664;23.368;2022-10-31T10:46:17;95547.94;;;26.93;29.22
61292;BME280;47165;42.664;23.368;2022-10-31T10:59:28;95536.59;;;28.21;27.14
61292;BME280;47165;42.664;23.368;2022-10-31T11:01:55;95540.81;;;28.54;26.61
61292;BME280;47165;42.664;23.368;2022-10-31T11:04:34;95539.31;;;28.81;25.90
61292;BME280;47165;42.664;23.368;2022-10-31T11:09:28;95528.47;;;28.74;25.41
61292;BME280;47165;42.664;23.368;2022-10-31T11:11:54;95523.59;;;29.14;25.44
61292;BME280;47165;42.664;23.368;2022-10-31T11:14:21;95519.97;;;29.07;24.68
61292;BME280;47165;42.664;23.368;2022-10-31T11:16:51;95520.66;;;29.31;24.77
61292;BME280;47165;42.664;23.368;2022-10-31T11:19:21;95518.69;;;29.39;24.80
61292;BME280;47165;42.664;23.368;2022-10-31T11:21:48;95528.03;;;29.65;24.30
61292;BME280;47165;42.664;23.368;2022-10-31T11:24:16;95518.00;;;29.74;23.48
61292;BME280;47165;42.664;23.368;2022-10-31T11:26:44;95512.13;;;29.92;23.93
61292;BME280;47165;42.664;23.368;2022-10-31T11:29:30;95507.78;;;29.69;23.79
61292;BME280;47165;42.664;23.368;2022-10-31T11:31:56;95501.91;;;29.59;23.48
61292;BME280;47165;42.664;23.368;2022-10-31T11:36:54;95497.06;;;29.47;23.40
61292;BME280;47165;42.664;23.368;2022-10-31T11:39:24;95499.97;;;29.53;24.15
61292;BME280;47165;42.664;23.368;2022-10-31T11:41:52;95493.84;;;29.80;23.56
61292;BME280;47165;42.664;23.368;2022-10-31T11:44:20;95490.66;;;29.98;23.71
61292;BME280;47165;42.664;23.368;2022-10-31T11:47:02;95490.56;;;30.13;23.67
61292;BME280;47165;42.664;23.368;2022-10-31T11:52:04;95479.34;;;30.38;23.03
61292;BME280;47165;42.664;23.368;2022-10-31T11:54:34;95483.97;;;30.57;23.18
61292;BME280;47165;42.664;23.368;2022-10-31T11:57:02;95486.94;;;30.69;22.46
61292;BME280;47165;42.664;23.368;2022-10-31T11:59:30;95485.66;;;30.58;22.38
61292;BME280;47165;42.664;23.368;2022-10-31T12:01:58;95478.66;;;30.71;22.28
61292;BME280;47165;42.664;23.368;2022-10-31T12:04:40;95474.22;;;30.98;22.56
61292;BME280;47165;42.664;23.368;2022-10-31T12:07:07;95470.09;;;31.08;22.04
61292;BME280;47165;42.664;23.368;2022-10-31T12:09:34;95471.16;;;31.21;21.94
61292;BME280;47165;42.664;23.368;2022-10-31T12:25:50;95470.44;;;31.67;21.01
61292;BME280;47165;42.664;23.368;2022-10-31T12:28:56;95466.44;;;31.36;20.76
61292;BME280;47165;42.664;23.368;2022-10-31T12:31:46;95466.81;;;31.40;20.96
61292;BME280;47165;42.664;23.368;2022-10-31T12:34:37;95457.72;;;31.47;21.35
61292;BME280;47165;42.664;23.368;2022-10-31T12:56:09;95460.03;;;31.51;21.06
61292;BME280;47165;42.664;23.368;2022-10-31T12:58:45;95461.50;;;31.73;21.33
61292;BME280;47165;42.664;23.368;2022-10-31T13:01:22;95459.22;;;31.57;21.25
61292;BME280;47165;42.664;23.368;2022-10-31T13:06:38;95459.81;;;31.92;20.85
61292;BME280;47165;42.664;23.368;2022-10-31T13:09:09;95458.78;;;32.13;21.15
61292;BME280;47165;42.664;23.368;2022-10-31T13:11:39;95462.88;;;32.36;21.00
61292;BME280;47165;42.664;23.368;2022-10-31T13:14:31;95460.56;;;32.46;20.21
61292;BME280;47165;42.664;23.368;2022-10-31T13:16:59;95461.41;;;32.40;20.06
61292;BME280;47165;42.664;23.368;2022-10-31T13:19:33;95455.56;;;32.56;20.10
61292;BME280;47165;42.664;23.368;2022-10-31T13:22:18;95450.03;;;32.83;20.09
61292;BME280;47165;42.664;23.368;2022-10-31T13:27:20;95453.25;;;33.05;19.94
61292;BME280;47165;42.664;23.368;2022-10-31T13:29:58;95454.88;;;33.19;19.71
61292;BME280;47165;42.664;23.368;2022-10-31T13:32:29;95460.69;;;33.23;19.56
61292;BME280;47165;42.664;23.368;2022-10-31T13:35:02;95458.16;;;33.28;19.40
61292;BME280;47165;42.664;23.368;2022-10-31T13:37:37;95457.59;;;33.19;19.36
61292;BME280;47165;42.664;23.368;2022-10-31T13:45:24;95454.09;;;33.05;19.07
61292;BME280;47165;42.664;23.368;2022-10-31T13:50:43;95454.75;;;33.39;19.14
61292;BME280;47165;42.664;23.368;2022-10-31T13:53:21;95455.16;;;33.36;19.14
61292;BME280;47165;42.664;23.368;2022-10-31T13:56:03;95461.97;;;33.14;18.88
61292;BME280;47165;42.664;23.368;2022-10-31T13:58:31;95457.41;;;33.07;19.11
61292;BME280;47165;42.664;23.368;2022-10-31T14:01:20;95461.72;;;32.77;19.49
61292;BME280;47165;42.664;23.368;2022-10-31T14:03:56;95465.97;;;32.46;20.44
61292;BME280;47165;42.664;23.368;2022-10-31T14:06:40;95455.66;;;32.16;20.06
61292;BME280;47165;42.664;23.368;2022-10-31T14:09:18;95458.38;;;31.90;20.52
61292;BME280;47165;42.664;23.368;2022-10-31T14:11:46;95458.16;;;31.98;21.29
61292;BME280;47165;42.664;23.368;2022-10-31T14:14:13;95457.72;;;31.94;20.92
61292;BME280;47165;42.664;23.368;2022-10-31T14:16:42;95469.38;;;31.81;20.89
61292;BME280;47165;42.664;23.368;2022-10-31T14:19:14;95466.47;;;31.63;21.11
61292;BME280;47165;42.664;23.368;2022-10-31T14:21:42;95462.72;;;31.44;21.07
61292;BME280;47165;42.664;23.368;2022-10-31T14:27:30;95468.47;;;31.21;21.62
61292;BME280;47165;42.664;23.368;2022-10-31T14:29:49;95478.44;;;31.20;21.69
61292;BME280;47165;42.664;23.368;2022-10-31T14:32:21;95476.63;;;30.86;21.95
61292;BME280;47165;42.664;23.368;2022-10-31T14:34:57;95474.72;;;30.66;22.33
61292;BME280;47165;42.664;23.368;2022-10-31T14:37:51;95477.50;;;30.45;22.76
61292;BME280;47165;42.664;23.368;2022-10-31T14:51:36;95471.88;;;29.34;23.60
61292;BME280;47165;42.664;23.368;2022-10-31T14:54:05;95479.47;;;29.08;24.08
61292;BME280;47165;42.664;23.368;2022-10-31T14:56:46;95478.78;;;28.85;24.25
61292;BME280;47165;42.664;23.368;2022-10-31T14:59:15;95471.84;;;28.61;24.57
61292;BME280;47165;42.664;23.368;2022-10-31T15:01:59;95478.38;;;28.37;25.18
61292;BME280;47165;42.664;23.368;2022-10-31T15:04:27;95472.25;;;28.13;25.24
61292;BME280;47165;42.664;23.368;2022-10-31T15:07:11;95471.75;;;27.95;25.34
61292;BME280;47165;42.664;23.368;2022-10-31T15:09:37;95472.44;;;27.74;25.84
61292;BME280;47165;42.664;23.368;2022-10-31T15:12:29;95480.47;;;27.59;26.13
61292;BME280;47165;42.664;23.368;2022-10-31T15:14:55;95474.47;;;27.34;26.54
61292;BME280;47165;42.664;23.368;2022-10-31T15:17:23;95488.72;;;27.03;27.29
61292;BME280;47165;42.664;23.368;2022-10-31T15:19:49;95485.09;;;26.64;27.88